createdAt,value
2023-01-13T00:00:34.512Z,-1.56
2023-01-13T00:01:38.005Z,-1.55
2023-01-13T00:02:41.023Z,-1.55
2023-01-13T00:03:44.368Z,-1.55
2023-01-13T00:04:47.556Z,-1.54
2023-01-13T00:05:50.986Z,-1.55
2023-01-13T00:06:54.065Z,-1.55
2023-01-13T00:07:57.030Z,-1.54
2023-01-13T00:08:59.993Z,-1.55
2023-01-13T00:10:03.234Z,-1.54
2023-01-13T00:11:06.427Z,-1.54
2023-01-13T00:12:09.459Z,-1.54
2023-01-13T00:13:12.699Z,-1.53
2023-01-13T00:14:15.668Z,-1.52
2023-01-13T00:15:18.819Z,-1.52
2023-01-13T00:16:22.038Z,-1.51
2023-01-13T00:17:25.062Z,-1.51
2023-01-13T00:18:28.533Z,-1.50
2023-01-13T00:19:31.624Z,-1.49
2023-01-13T00:20:34.745Z,-1.48
2023-01-13T00:21:37.945Z,-1.48
2023-01-13T00:22:40.951Z,-1.47
2023-01-13T00:23:44.753Z,-1.45
2023-01-13T00:24:47.709Z,-1.43
2023-01-13T00:25:50.818Z,-1.42
2023-01-13T00:26:54.304Z,-1.39
2023-01-13T00:27:57.381Z,-1.37
2023-01-13T00:29:00.505Z,-1.35
2023-01-13T00:30:04.335Z,-1.33
2023-01-13T00:31:11.064Z,-1.31
2023-01-13T00:32:14.270Z,-1.30
2023-01-13T00:33:17.157Z,-1.28
2023-01-13T00:34:20.286Z,-1.27
2023-01-13T00:35:23.500Z,-1.24
2023-01-13T00:36:28.203Z,-1.26
2023-01-13T00:37:31.181Z,-1.24
2023-01-13T00:38:35.348Z,-1.23
2023-01-13T00:39:38.453Z,-1.22
2023-01-13T00:40:41.733Z,-1.20
2023-01-13T00:42:03.158Z,-1.20
2023-01-13T00:43:24.531Z,-1.21
2023-01-13T00:44:27.635Z,-1.21
2023-01-13T00:45:30.658Z,-1.23
2023-01-13T00:46:33.954Z,-1.25
2023-01-13T00:47:36.968Z,-1.26
2023-01-13T00:48:40.060Z,-1.26
2023-01-13T00:49:43.053Z,-1.27
2023-01-13T00:50:46.228Z,-1.28
2023-01-13T00:51:49.626Z,-1.26
2023-01-13T00:52:52.621Z,-1.28
2023-01-13T00:53:55.645Z,-1.27
2023-01-13T00:54:58.659Z,-1.27
2023-01-13T00:56:07.565Z,-1.27
2023-01-13T00:57:10.570Z,-1.26
2023-01-13T00:58:13.518Z,-1.26
2023-01-13T00:59:16.605Z,-1.27
2023-01-13T01:00:19.983Z,-1.28
2023-01-13T01:01:23.856Z,-1.29
2023-01-13T01:02:26.902Z,-1.31
2023-01-13T01:03:30.355Z,-1.32
2023-01-13T01:04:33.453Z,-1.32
2023-01-13T01:05:36.426Z,-1.32
2023-01-13T01:06:39.684Z,-1.33
2023-01-13T01:07:43.074Z,-1.34
2023-01-13T01:08:46.144Z,-1.34
2023-01-13T01:09:49.644Z,-1.34
2023-01-13T01:11:02.680Z,-1.36
2023-01-13T01:12:06.023Z,-1.35
2023-01-13T01:13:10.884Z,-1.35
2023-01-13T01:14:13.971Z,-1.37
2023-01-13T01:15:17.244Z,-1.37
2023-01-13T01:16:23.601Z,-1.37
2023-01-13T01:17:27.710Z,-1.37
2023-01-13T01:18:30.788Z,-1.35
2023-01-13T01:19:35.876Z,-1.34
2023-01-13T01:20:38.995Z,-1.34
2023-01-13T01:21:42.091Z,-1.33
2023-01-13T01:22:45.091Z,-1.33
2023-01-13T01:23:47.951Z,-1.33
2023-01-13T01:24:50.924Z,-1.32
2023-01-13T01:25:53.979Z,-1.33
2023-01-13T01:26:57.080Z,-1.32
2023-01-13T01:28:00.062Z,-1.32
2023-01-13T01:29:03.041Z,-1.31
2023-01-13T01:30:07.624Z,-1.31
2023-01-13T01:31:13.966Z,-1.30
2023-01-13T01:32:17.103Z,-1.31
2023-01-13T01:33:20.271Z,-1.31
2023-01-13T01:34:23.244Z,-1.31
2023-01-13T01:35:26.224Z,-1.29
2023-01-13T01:36:29.810Z,-1.30
2023-01-13T01:37:32.933Z,-1.29
2023-01-13T01:38:35.933Z,-1.27
2023-01-13T01:39:38.991Z,-1.24
2023-01-13T01:40:42.123Z,-1.26
2023-01-13T01:41:46.973Z,-1.24
2023-01-13T01:43:08.558Z,-1.22
2023-01-13T01:44:43.794Z,-1.22
2023-01-13T01:45:46.859Z,-1.21
2023-01-13T01:46:50.235Z,-1.23
2023-01-13T01:47:59.632Z,-1.24
2023-01-13T01:49:21.330Z,-1.23
2023-01-13T01:50:24.733Z,-1.24
2023-01-13T01:51:31.033Z,-1.22
2023-01-13T01:52:37.807Z,-1.23
2023-01-13T01:53:41.394Z,-1.22
2023-01-13T01:54:50.727Z,-1.23
2023-01-13T01:55:54.876Z,-1.22
2023-01-13T01:56:58.340Z,-1.22
2023-01-13T01:58:06.047Z,-1.22
2023-01-13T01:59:09.537Z,-1.22
2023-01-13T02:00:13.698Z,-1.23
2023-01-13T02:01:17.711Z,-1.23
2023-01-13T02:02:21.814Z,-1.22
2023-01-13T02:03:25.064Z,-1.22
2023-01-13T02:04:31.583Z,-1.21
2023-01-13T02:05:34.877Z,-1.21
2023-01-13T02:06:38.991Z,-1.21
2023-01-13T02:07:43.968Z,-1.20
2023-01-13T02:08:47.487Z,-1.20
2023-01-13T02:09:52.598Z,-1.18
2023-01-13T02:10:55.571Z,-1.15
2023-01-13T02:12:16.931Z,-1.14
2023-01-13T02:13:22.318Z,-1.12
2023-01-13T02:14:28.025Z,-1.10
2023-01-13T02:15:55.996Z,-1.09
2023-01-13T02:17:05.332Z,-1.09
2023-01-13T02:18:24.042Z,-1.09
2023-01-13T02:19:30.534Z,-1.09
2023-01-13T02:20:52.453Z,-1.07
2023-01-13T02:22:02.065Z,-1.06
2023-01-13T02:23:36.377Z,-1.06
2023-01-13T02:24:54.955Z,-1.06
2023-01-13T02:26:13.843Z,-1.07
2023-01-13T02:27:20.453Z,-1.06
2023-01-13T02:28:45.629Z,-1.05
2023-01-13T02:30:19.763Z,-1.04
2023-01-13T02:31:41.710Z,-1.04
2023-01-13T02:33:19.498Z,-1.04
2023-01-13T02:34:34.936Z,-1.06
2023-01-13T02:35:53.305Z,-1.08
2023-01-13T02:37:00.083Z,-1.11
2023-01-13T02:38:05.529Z,-1.12
2023-01-13T02:39:12.297Z,-1.12
2023-01-13T02:40:19.168Z,-1.10
2023-01-13T02:43:18.083Z,-1.00
2023-01-13T02:44:24.803Z,-1.13
2023-01-13T02:45:34.392Z,-1.12
2023-01-13T02:46:47.230Z,-1.12
2023-01-13T02:47:53.617Z,-1.12
2023-01-13T02:49:00.152Z,-1.14
2023-01-13T02:50:06.878Z,-1.13
2023-01-13T02:51:19.452Z,-1.15
2023-01-13T02:52:38.152Z,-1.15
2023-01-13T02:53:50.749Z,-1.15
2023-01-13T02:54:57.537Z,-1.16
2023-01-13T02:56:03.224Z,-1.16
2023-01-13T02:57:08.781Z,-1.19
2023-01-13T02:58:15.366Z,-1.19
2023-01-13T02:59:20.360Z,-1.19
2023-01-13T03:00:23.855Z,-1.19
2023-01-13T03:01:27.241Z,-1.19
2023-01-13T03:02:30.347Z,-1.19
2023-01-13T03:03:33.300Z,-1.19
2023-01-13T03:04:48.389Z,-1.17
2023-01-13T03:05:57.597Z,-1.18
2023-01-13T03:07:07.249Z,-1.20
2023-01-13T03:08:22.445Z,-1.22
2023-01-13T03:09:31.937Z,-1.21
2023-01-13T03:10:49.818Z,-1.22
2023-01-13T03:12:17.375Z,-1.22
2023-01-13T03:13:41.878Z,-1.23
2023-01-13T03:14:51.517Z,-1.24
2023-01-13T03:16:06.704Z,-1.26
2023-01-13T03:17:14.323Z,-1.27
2023-01-13T03:20:00.244Z,-1.17
2023-01-13T03:21:21.412Z,-1.28
2023-01-13T03:22:33.860Z,-1.27
2023-01-13T03:23:43.328Z,-1.26
2023-01-13T03:24:55.753Z,-1.27
2023-01-13T03:26:11.358Z,-1.24
2023-01-13T03:27:26.933Z,-1.23
2023-01-13T03:28:33.534Z,-1.23
2023-01-13T03:29:52.191Z,-1.22
2023-01-13T03:30:58.898Z,-1.21
2023-01-13T03:32:23.652Z,-1.21
2023-01-13T03:33:33.377Z,-1.19
2023-01-13T03:34:54.582Z,-1.16
2023-01-13T03:36:01.160Z,-1.15
2023-01-13T03:37:07.785Z,-1.14
2023-01-13T03:38:17.469Z,-1.13
2023-01-13T03:39:24.211Z,-1.13
2023-01-13T03:40:31.194Z,-1.12
2023-01-13T03:41:40.956Z,-1.10
2023-01-13T03:42:49.410Z,-1.11
2023-01-13T03:45:24.664Z,-0.99
2023-01-13T03:47:01.087Z,-1.10
2023-01-13T03:49:21.321Z,-1.01
2023-01-13T03:50:27.946Z,-1.12
2023-01-13T03:51:33.249Z,-1.12
2023-01-13T03:52:39.505Z,-1.10
2023-01-13T03:53:51.842Z,-1.09
2023-01-13T03:54:58.402Z,-1.07
2023-01-13T03:56:10.665Z,-1.06
2023-01-13T03:57:17.189Z,-1.04
2023-01-13T03:58:33.038Z,-1.04
2023-01-13T03:59:39.762Z,-1.02
2023-01-13T04:00:49.477Z,-1.00
2023-01-13T04:01:56.217Z,-1.00
2023-01-13T04:03:02.724Z,-0.97
2023-01-13T04:04:09.294Z,-0.96
2023-01-13T04:05:13.451Z,-0.95
2023-01-13T04:06:23.237Z,-0.94
2023-01-13T04:07:38.588Z,-0.93
2023-01-13T04:08:51.241Z,-0.93
2023-01-13T04:09:57.081Z,-0.93
2023-01-13T04:11:12.547Z,-0.92
2023-01-13T04:12:58.255Z,-0.92
2023-01-13T04:14:03.412Z,-0.92
2023-01-13T04:15:07.286Z,-0.92
2023-01-13T04:16:11.599Z,-0.92
2023-01-13T04:17:15.914Z,-0.92
2023-01-13T04:19:33.436Z,-0.83
2023-01-13T04:20:36.460Z,-0.93
2023-01-13T04:21:39.498Z,-0.91
2023-01-13T04:22:42.520Z,-0.90
2023-01-13T04:23:45.497Z,-0.88
2023-01-13T04:24:48.550Z,-0.87
2023-01-13T04:25:51.603Z,-0.85
2023-01-13T04:26:55.964Z,-0.85
2023-01-13T04:27:58.887Z,-0.84
2023-01-13T04:29:01.721Z,-0.83
2023-01-13T04:30:06.117Z,-0.81
2023-01-13T04:31:09.369Z,-0.80
2023-01-13T04:32:12.421Z,-0.77
2023-01-13T04:33:17.348Z,-0.78
2023-01-13T04:34:20.323Z,-0.74
2023-01-13T04:35:23.363Z,-0.73
2023-01-13T04:36:29.259Z,-0.72
2023-01-13T04:37:32.142Z,-0.70
2023-01-13T04:38:35.109Z,-0.70
2023-01-13T04:39:38.032Z,-0.69
2023-01-13T04:40:42.187Z,-0.70
2023-01-13T04:42:01.840Z,-0.69
2023-01-13T04:43:05.190Z,-0.69
2023-01-13T04:44:08.309Z,-0.68
2023-01-13T04:45:11.382Z,-0.69
2023-01-13T04:46:14.881Z,-0.69
2023-01-13T04:47:17.745Z,-0.69
2023-01-13T04:48:20.756Z,-0.69
2023-01-13T04:49:23.810Z,-0.69
2023-01-13T04:50:26.849Z,-0.69
2023-01-13T04:51:29.799Z,-0.68
2023-01-13T04:52:32.812Z,-0.67
2023-01-13T04:53:35.874Z,-0.66
2023-01-13T04:54:38.795Z,-0.66
2023-01-13T04:55:41.919Z,-0.66
2023-01-13T04:56:45.595Z,-0.66
2023-01-13T04:57:48.653Z,-0.66
2023-01-13T04:58:51.603Z,-0.64
2023-01-13T04:59:54.848Z,-0.65
2023-01-13T05:00:59.677Z,-0.66
2023-01-13T05:02:02.641Z,-0.67
2023-01-13T05:03:05.968Z,-0.67
2023-01-13T05:04:10.825Z,-0.68
2023-01-13T05:05:13.908Z,-0.67
2023-01-13T05:06:17.062Z,-0.67
2023-01-13T05:07:20.008Z,-0.67
2023-01-13T05:08:22.843Z,-0.67
2023-01-13T05:09:25.905Z,-0.67
2023-01-13T05:10:28.977Z,-0.67
2023-01-13T05:11:50.993Z,-0.67
2023-01-13T05:13:12.358Z,-0.67
2023-01-13T05:14:33.697Z,-0.67
2023-01-13T05:15:57.076Z,-0.69
2023-01-13T05:17:00.600Z,-0.70
2023-01-13T05:18:03.783Z,-0.71
2023-01-13T05:19:06.925Z,-0.71
2023-01-13T05:20:12.182Z,-0.71
2023-01-13T05:21:33.789Z,-0.70
2023-01-13T05:22:54.982Z,-0.71
2023-01-13T05:24:16.328Z,-0.71
2023-01-13T05:25:22.332Z,-0.71
2023-01-13T05:26:25.560Z,-0.71
2023-01-13T05:27:29.380Z,-0.73
2023-01-13T05:28:34.180Z,-0.72
2023-01-13T05:29:37.227Z,-0.73
2023-01-13T05:30:42.963Z,-0.71
2023-01-13T05:31:46.038Z,-0.70
2023-01-13T05:32:49.305Z,-0.68
2023-01-13T05:33:52.297Z,-0.67
2023-01-13T05:34:55.975Z,-0.66
2023-01-13T05:36:01.783Z,-0.65
2023-01-13T05:37:06.838Z,-0.64
2023-01-13T05:38:10.104Z,-0.64
2023-01-13T05:39:13.199Z,-0.63
2023-01-13T05:40:36.808Z,-0.61
2023-01-13T05:41:58.134Z,-0.61
2023-01-13T05:43:19.601Z,-0.61
2023-01-13T05:44:22.570Z,-0.63
2023-01-13T05:45:25.799Z,-0.64
2023-01-13T05:46:29.117Z,-0.65
2023-01-13T05:47:32.435Z,-0.65
2023-01-13T05:48:38.086Z,-0.65
2023-01-13T05:49:42.297Z,-0.66
2023-01-13T05:50:46.980Z,-0.66
2023-01-13T05:51:50.102Z,-0.66
2023-01-13T05:52:53.238Z,-0.65
2023-01-13T05:53:56.248Z,-0.63
2023-01-13T05:54:59.187Z,-0.62
2023-01-13T05:56:05.859Z,-0.62
2023-01-13T05:57:08.825Z,-0.61
2023-01-13T05:58:14.353Z,-0.59
2023-01-13T05:59:17.436Z,-0.58
2023-01-13T06:00:20.883Z,-0.57
2023-01-13T06:01:23.932Z,-0.56
2023-01-13T06:02:27.185Z,-0.55
2023-01-13T06:03:30.543Z,-0.55
2023-01-13T06:04:33.601Z,-0.54
2023-01-13T06:05:37.244Z,-0.54
2023-01-13T06:06:40.277Z,-0.54
2023-01-13T06:07:43.366Z,-0.54
2023-01-13T06:08:46.430Z,-0.53
2023-01-13T06:09:49.365Z,-0.53
2023-01-13T06:10:52.602Z,-0.53
2023-01-13T06:11:55.556Z,-0.53
2023-01-13T06:12:58.641Z,-0.52
2023-01-13T06:14:01.729Z,-0.53
2023-01-13T06:15:05.542Z,-0.55
2023-01-13T06:16:09.139Z,-0.56
2023-01-13T06:17:14.552Z,-0.56
2023-01-13T06:18:17.738Z,-0.56
2023-01-13T06:19:20.613Z,-0.55
2023-01-13T06:20:24.742Z,-0.55
2023-01-13T06:21:27.713Z,-0.54
2023-01-13T06:22:32.374Z,-0.54
2023-01-13T06:23:37.123Z,-0.53
2023-01-13T06:24:40.306Z,-0.53
2023-01-13T06:26:18.345Z,-0.53
2023-01-13T06:27:22.653Z,-0.53
2023-01-13T06:28:25.760Z,-0.54
2023-01-13T06:29:28.745Z,-0.54
2023-01-13T06:30:38.354Z,-0.56
2023-01-13T06:31:41.507Z,-0.55
2023-01-13T06:32:47.664Z,-0.56
2023-01-13T06:33:53.895Z,-0.56
2023-01-13T06:35:00.403Z,-0.56
2023-01-13T06:36:07.128Z,-0.57
2023-01-13T06:37:14.151Z,-0.57
2023-01-13T06:38:19.170Z,-0.55
2023-01-13T06:39:26.954Z,-0.55
2023-01-13T06:40:30.225Z,-0.55
2023-01-13T06:41:52.018Z,-0.54
2023-01-13T06:43:16.370Z,-0.54
2023-01-13T06:44:20.803Z,-0.53
2023-01-13T06:45:26.542Z,-0.52
2023-01-13T06:46:29.750Z,-0.52
2023-01-13T06:47:32.713Z,-0.50
2023-01-13T06:48:36.026Z,-0.51
2023-01-13T06:49:39.026Z,-0.50
2023-01-13T06:50:42.409Z,-0.50
2023-01-13T06:51:46.025Z,-0.50
2023-01-13T06:52:49.142Z,-0.50
2023-01-13T06:53:52.191Z,-0.50
2023-01-13T06:54:55.463Z,-0.50
2023-01-13T06:55:58.698Z,-0.49
2023-01-13T06:57:02.370Z,-0.49
2023-01-13T06:58:05.721Z,-0.48
2023-01-13T06:59:08.748Z,-0.46
2023-01-13T07:00:13.079Z,-0.45
2023-01-13T07:01:16.246Z,-0.44
2023-01-13T07:02:19.507Z,-0.42
2023-01-13T07:03:22.836Z,-0.43
2023-01-13T07:04:26.036Z,-0.42
2023-01-13T07:05:29.211Z,-0.42
2023-01-13T07:06:32.238Z,-0.42
2023-01-13T07:07:35.280Z,-0.42
2023-01-13T07:08:38.419Z,-0.42
2023-01-13T07:09:41.471Z,-0.44
2023-01-13T07:10:44.616Z,-0.44
2023-01-13T07:11:47.677Z,-0.44
2023-01-13T07:13:09.097Z,-0.45
2023-01-13T07:14:30.135Z,-0.44
2023-01-13T07:15:33.653Z,-0.45
2023-01-13T07:16:36.850Z,-0.46
2023-01-13T07:17:40.126Z,-0.47
2023-01-13T07:18:42.983Z,-0.45
2023-01-13T07:19:46.040Z,-0.45
2023-01-13T07:20:56.913Z,-0.44
2023-01-13T07:22:00.023Z,-0.44
2023-01-13T07:23:03.084Z,-0.46
2023-01-13T07:24:06.473Z,-0.49
2023-01-13T07:27:39.605Z,-0.50
2023-01-13T07:28:42.698Z,-0.52
2023-01-13T07:29:45.565Z,-0.52
2023-01-13T07:30:48.554Z,-0.50
2023-01-13T07:31:51.713Z,-0.49
2023-01-13T07:32:55.755Z,-0.47
2023-01-13T07:33:58.733Z,-0.45
2023-01-13T07:35:03.627Z,-0.44
2023-01-13T07:36:07.587Z,-0.43
2023-01-13T07:37:10.542Z,-0.41
2023-01-13T07:38:13.890Z,-0.40
2023-01-13T07:39:17.069Z,-0.38
2023-01-13T07:40:20.289Z,-0.35
2023-01-13T07:41:41.716Z,-0.32
2023-01-13T07:43:03.260Z,-0.31
2023-01-13T07:44:07.707Z,-0.27
2023-01-13T07:45:12.383Z,-0.26
2023-01-13T07:46:15.928Z,-0.25
2023-01-13T07:47:20.817Z,-0.23
2023-01-13T07:48:24.026Z,-0.23
2023-01-13T07:49:27.112Z,-0.20
2023-01-13T07:50:30.151Z,-0.20
2023-01-13T07:51:35.328Z,-0.20
2023-01-13T07:52:38.292Z,-0.19
2023-01-13T07:53:41.311Z,-0.18
2023-01-13T07:54:44.300Z,-0.16
2023-01-13T07:55:47.299Z,-0.15
2023-01-13T07:56:50.376Z,-0.14
2023-01-13T07:57:53.428Z,-0.14
2023-01-13T07:59:01.347Z,-0.13
2023-01-13T08:00:05.187Z,-0.13
2023-01-13T08:01:13.127Z,-0.12
2023-01-13T08:02:16.528Z,-0.11
2023-01-13T08:03:19.476Z,-0.11
2023-01-13T08:04:22.565Z,-0.10
2023-01-13T08:05:25.529Z,-0.09
2023-01-13T08:06:29.023Z,-0.08
2023-01-13T08:07:32.179Z,-0.09
2023-01-13T08:08:35.730Z,-0.09
2023-01-13T08:09:38.805Z,-0.09
2023-01-13T08:10:42.011Z,-0.08
2023-01-13T08:11:46.736Z,-0.06
2023-01-13T08:13:07.976Z,-0.05
2023-01-13T08:14:11.067Z,-0.03
2023-01-13T08:15:14.168Z,-0.03
2023-01-13T08:16:17.611Z,-0.03
2023-01-13T08:17:20.810Z,-0.03
2023-01-13T08:18:24.075Z,-0.03
2023-01-13T08:19:27.136Z,-0.01
2023-01-13T08:20:30.195Z,0.00
2023-01-13T08:21:33.413Z,0.01
2023-01-13T08:22:36.588Z,0.04
2023-01-13T08:23:41.162Z,0.06
2023-01-13T08:24:44.260Z,0.07
2023-01-13T08:25:47.379Z,0.08
2023-01-13T08:26:50.585Z,0.10
2023-01-13T08:27:53.731Z,0.12
2023-01-13T08:28:56.685Z,0.15
2023-01-13T08:30:00.179Z,0.16
2023-01-13T08:31:06.054Z,0.18
2023-01-13T08:32:09.060Z,0.17
2023-01-13T08:33:12.635Z,0.18
2023-01-13T08:34:15.750Z,0.17
2023-01-13T08:35:19.499Z,0.17
2023-01-13T08:36:24.395Z,0.18
2023-01-13T08:37:27.489Z,0.20
2023-01-13T08:38:30.471Z,0.21
2023-01-13T08:39:33.571Z,0.23
2023-01-13T08:40:38.381Z,0.25
2023-01-13T08:41:54.952Z,0.27
2023-01-13T08:42:58.518Z,0.27
2023-01-13T08:44:02.219Z,0.26
2023-01-13T08:45:06.674Z,0.24
2023-01-13T08:46:10.393Z,0.22
2023-01-13T08:47:13.419Z,0.21
2023-01-13T08:48:16.362Z,0.21
2023-01-13T08:49:19.650Z,0.21
2023-01-13T08:50:22.829Z,0.20
2023-01-13T08:51:26.116Z,0.20
2023-01-13T08:52:29.393Z,0.20
2023-01-13T08:53:32.442Z,0.20
2023-01-13T08:54:37.294Z,0.23
2023-01-13T08:55:40.514Z,0.23
2023-01-13T08:56:44.694Z,0.24
2023-01-13T08:57:47.782Z,0.24
2023-01-13T08:58:50.888Z,0.23
2023-01-13T08:59:53.936Z,0.23
2023-01-13T09:00:57.215Z,0.24
2023-01-13T09:02:00.809Z,0.24
2023-01-13T09:03:04.606Z,0.25
2023-01-13T09:04:17.154Z,0.25
2023-01-13T09:05:20.157Z,0.25
2023-01-13T09:06:23.226Z,0.25
2023-01-13T09:07:26.275Z,0.25
2023-01-13T09:08:29.333Z,0.26
2023-01-13T09:09:32.552Z,0.27
2023-01-13T09:10:36.224Z,0.27
2023-01-13T09:12:02.862Z,0.28
2023-01-13T09:13:11.622Z,0.29
2023-01-13T09:14:19.318Z,0.30
2023-01-13T09:15:22.474Z,0.31
2023-01-13T09:16:25.520Z,0.31
2023-01-13T09:17:28.617Z,0.31
2023-01-13T09:18:31.807Z,0.30
2023-01-13T09:19:35.180Z,0.30
2023-01-13T09:20:38.437Z,0.32
2023-01-13T09:21:41.472Z,0.33
2023-01-13T09:22:44.569Z,0.34
2023-01-13T09:23:47.635Z,0.34
2023-01-13T09:24:50.581Z,0.34
2023-01-13T09:25:53.736Z,0.34
2023-01-13T09:26:56.983Z,0.34
2023-01-13T09:28:00.143Z,0.33
2023-01-13T09:29:03.486Z,0.34
2023-01-13T09:30:09.161Z,0.34
2023-01-13T09:31:12.207Z,0.35
2023-01-13T09:32:15.368Z,0.36
2023-01-13T09:33:36.702Z,0.38
2023-01-13T09:34:58.068Z,0.39
2023-01-13T09:36:01.247Z,0.40
2023-01-13T09:37:06.493Z,0.43
2023-01-13T09:38:09.698Z,0.43
2023-01-13T09:39:12.998Z,0.44
2023-01-13T09:40:19.671Z,0.45
2023-01-13T09:41:43.234Z,0.44
2023-01-13T09:43:11.348Z,0.45
2023-01-13T09:44:17.891Z,0.45
2023-01-13T09:45:31.524Z,0.46
2023-01-13T09:46:53.206Z,0.48
2023-01-13T09:48:14.954Z,0.49
2023-01-13T09:49:30.184Z,0.50
2023-01-13T09:50:51.773Z,0.52
2023-01-13T09:52:07.657Z,0.53
2023-01-13T09:53:14.430Z,0.54
2023-01-13T09:55:37.877Z,0.64
2023-01-13T09:56:40.829Z,0.52
2023-01-13T09:57:43.907Z,0.51
2023-01-13T09:58:47.622Z,0.52
2023-01-13T09:59:50.567Z,0.53
2023-01-13T10:01:17.505Z,0.55
2023-01-13T10:02:26.958Z,0.57
2023-01-13T10:03:32.509Z,0.59
2023-01-13T10:04:35.717Z,0.58
2023-01-13T10:05:49.856Z,0.59
2023-01-13T10:06:59.434Z,0.59
2023-01-13T10:08:05.999Z,0.59
2023-01-13T10:09:15.311Z,0.59
2023-01-13T10:10:38.725Z,0.58
2023-01-13T10:12:02.567Z,0.58
2023-01-13T10:13:19.509Z,0.60
2023-01-13T10:14:26.173Z,0.62
2023-01-13T10:15:29.253Z,0.62
2023-01-13T10:16:47.498Z,0.64
2023-01-13T10:17:57.123Z,0.63
2023-01-13T10:19:15.995Z,0.64
2023-01-13T10:20:22.244Z,0.65
2023-01-13T10:21:44.190Z,0.65
2023-01-13T10:23:16.211Z,0.68
2023-01-13T10:24:39.427Z,0.69
2023-01-13T10:26:10.153Z,0.68
2023-01-13T10:27:26.159Z,0.68
2023-01-13T10:28:29.206Z,0.68
2023-01-13T10:29:34.025Z,0.66
2023-01-13T10:30:43.278Z,0.66
2023-01-13T10:31:46.361Z,0.67
2023-01-13T10:32:55.744Z,0.67
2023-01-13T10:34:01.115Z,0.69
2023-01-13T10:35:05.120Z,0.69
2023-01-13T10:36:22.405Z,0.70
2023-01-13T10:37:27.754Z,0.71
2023-01-13T10:38:39.665Z,0.72
2023-01-13T10:39:45.400Z,0.73
2023-01-13T10:40:54.519Z,0.74
2023-01-13T10:42:02.540Z,0.75
2023-01-13T10:43:06.023Z,0.76
2023-01-13T10:44:17.092Z,0.74
2023-01-13T10:45:25.311Z,0.77
2023-01-13T10:46:30.196Z,0.77
2023-01-13T10:47:35.906Z,0.77
2023-01-13T10:48:43.557Z,0.77
2023-01-13T14:06:07.104Z,-1.32
2023-01-13T14:07:21.099Z,-1.33
2023-01-13T14:08:25.734Z,-1.26
2023-01-13T14:10:45.209Z,-0.99
2023-01-13T14:11:57.610Z,-1.07
2023-01-13T14:13:03.356Z,-1.02
2023-01-13T14:14:16.310Z,-0.97
2023-01-13T14:15:32.107Z,-0.93
2023-01-13T14:16:37.749Z,-0.91
2023-01-13T14:17:40.879Z,-0.88
2023-01-13T14:18:47.815Z,-0.86
2023-01-13T14:19:54.531Z,-0.85
2023-01-13T14:21:04.211Z,-0.81
2023-01-13T14:22:10.837Z,-0.78
2023-01-13T14:23:17.442Z,-0.73
2023-01-13T14:24:21.883Z,-0.70
2023-01-13T14:25:31.686Z,-0.66
2023-01-13T14:26:34.645Z,-0.62
2023-01-13T14:27:41.187Z,-0.59
2023-01-13T14:28:44.482Z,-0.57
2023-01-13T14:29:47.712Z,-0.54
2023-01-13T14:30:51.667Z,-0.51
2023-01-13T14:31:54.976Z,-0.49
2023-01-13T14:32:59.248Z,-0.45
2023-01-13T14:34:31.909Z,-0.42
2023-01-13T14:35:11.300Z,-0.39
2023-01-13T14:36:23.507Z,-0.37
2023-01-13T14:37:39.077Z,-0.36
2023-01-13T14:38:45.025Z,-0.35
2023-01-13T14:39:48.158Z,-0.31
2023-01-13T14:40:51.062Z,-0.29
2023-01-13T14:41:54.242Z,-0.27
2023-01-13T14:43:02.013Z,-0.25
2023-01-13T14:44:14.841Z,-0.23
2023-01-13T14:45:24.710Z,-0.23
2023-01-13T14:46:41.840Z,-0.21
2023-01-13T14:47:48.401Z,-0.22
2023-01-13T14:48:55.293Z,-0.21
2023-01-13T14:50:08.199Z,-0.20
2023-01-13T14:51:13.614Z,-0.19
2023-01-13T14:52:23.217Z,-0.19
2023-01-13T14:53:32.530Z,-0.18
2023-01-13T14:54:39.176Z,-0.17
2023-01-13T14:55:42.549Z,-0.17
2023-01-13T14:56:50.927Z,-0.17
2023-01-13T14:58:14.279Z,-0.17
2023-01-13T14:59:43.063Z,-0.16
2023-01-13T15:00:46.232Z,-0.19
2023-01-13T15:01:49.380Z,-0.21
2023-01-13T15:03:01.888Z,-0.22
2023-01-13T15:04:26.644Z,-0.23
2023-01-13T15:05:32.856Z,-0.22
2023-01-13T15:06:36.969Z,-0.22
2023-01-13T15:07:40.083Z,-0.24
2023-01-13T15:08:43.172Z,-0.22
2023-01-13T15:09:46.424Z,-0.23
2023-01-13T15:11:01.618Z,-0.23
2023-01-13T15:13:39.512Z,-0.12
2023-01-13T15:14:45.870Z,-0.22
2023-01-13T15:15:55.211Z,-0.23
2023-01-13T15:16:58.641Z,-0.21
2023-01-13T15:18:04.573Z,-0.22
2023-01-13T15:19:09.718Z,-0.21
2023-01-13T15:20:14.059Z,-0.20
2023-01-13T15:21:17.723Z,-0.18
2023-01-13T15:22:20.824Z,-0.17
2023-01-13T15:23:24.092Z,-0.17
2023-01-13T15:24:27.128Z,-0.16
2023-01-13T15:25:34.627Z,-0.15
2023-01-13T15:26:37.812Z,-0.15
2023-01-13T15:27:42.662Z,-0.15
2023-01-13T15:28:45.880Z,-0.15
2023-01-13T15:29:49.034Z,-0.15
2023-01-13T15:30:53.913Z,-0.14
2023-01-13T15:31:57.130Z,-0.14
2023-01-13T15:33:00.381Z,-0.13
2023-01-13T15:34:03.364Z,-0.12
2023-01-13T15:35:07.358Z,-0.11
2023-01-13T15:36:31.431Z,-0.11
2023-01-13T15:37:35.000Z,-0.09
2023-01-13T15:38:38.242Z,-0.07
2023-01-13T15:39:41.454Z,-0.05
2023-01-13T15:40:44.716Z,-0.05
2023-01-13T15:42:05.955Z,-0.05
2023-01-13T15:43:32.967Z,-0.04
2023-01-13T15:44:54.525Z,-0.03
2023-01-13T15:46:16.034Z,-0.04
2023-01-13T15:47:21.408Z,-0.04
2023-01-13T15:48:27.362Z,-0.06
2023-01-13T15:49:40.162Z,-0.07
2023-01-13T15:50:43.286Z,-0.08
2023-01-13T15:51:49.445Z,-0.08
2023-01-13T15:52:52.592Z,-0.09
2023-01-13T15:53:58.055Z,-0.08
2023-01-13T15:55:02.210Z,-0.07
2023-01-13T15:56:14.987Z,-0.08
2023-01-13T15:57:27.205Z,-0.08
2023-01-13T15:58:31.607Z,-0.07
2023-01-13T15:59:34.703Z,-0.05
2023-01-13T16:00:37.819Z,-0.05
2023-01-13T16:01:41.313Z,-0.04
2023-01-13T16:02:44.557Z,-0.05
2023-01-13T16:03:47.688Z,-0.05
2023-01-13T16:04:53.033Z,-0.05
2023-01-13T16:05:56.243Z,-0.03
2023-01-13T16:06:59.515Z,-0.02
2023-01-13T16:08:02.681Z,0.00
2023-01-13T16:09:05.973Z,-0.02
2023-01-13T16:10:18.976Z,0.02
2023-01-13T16:11:22.055Z,0.00
2023-01-13T16:12:25.041Z,0.00
2023-01-13T16:13:28.189Z,-0.02
2023-01-13T16:14:31.473Z,-0.03
2023-01-13T16:15:34.551Z,-0.04
2023-01-13T16:16:37.819Z,-0.04
2023-01-13T16:17:42.923Z,-0.04
2023-01-13T16:18:46.122Z,-0.05
2023-01-13T16:19:49.102Z,-0.06
2023-01-13T16:20:54.473Z,-0.06
2023-01-13T16:21:59.182Z,-0.06
2023-01-13T16:23:02.166Z,-0.06
2023-01-13T16:24:05.301Z,-0.06
2023-01-13T16:25:17.786Z,-0.05
2023-01-13T16:26:24.277Z,-0.04
2023-01-13T16:27:27.452Z,-0.04
2023-01-13T16:28:30.406Z,-0.04
2023-01-13T16:29:33.652Z,-0.05
2023-01-13T16:30:37.139Z,-0.06
2023-01-13T16:31:40.424Z,-0.07
2023-01-13T16:32:43.625Z,-0.07
2023-01-13T16:33:46.806Z,-0.07
2023-01-13T16:34:49.880Z,-0.07
2023-01-13T16:36:09.456Z,-0.08
2023-01-13T16:41:54.064Z,-0.14
2023-01-13T16:42:57.330Z,-0.19
2023-01-13T16:44:02.234Z,-0.22
2023-01-13T16:45:08.336Z,-0.24
2023-01-13T16:46:26.656Z,-0.24
2023-01-13T16:47:29.871Z,-0.24
2023-01-13T16:48:32.992Z,-0.24
2023-01-13T16:49:35.943Z,-0.23
2023-01-13T16:50:41.917Z,-0.25
2023-01-13T16:51:45.098Z,-0.25
2023-01-13T16:52:48.389Z,-0.26
2023-01-13T16:53:51.772Z,-0.26
2023-01-13T16:54:54.959Z,-0.26
2023-01-13T16:55:58.279Z,-0.26
2023-01-13T16:57:01.567Z,-0.24
2023-01-13T16:58:05.424Z,-0.25
2023-01-13T16:59:11.750Z,-0.23
2023-01-13T17:00:15.851Z,-0.22
2023-01-13T17:01:25.484Z,-0.22
2023-01-13T17:02:28.687Z,-0.21
2023-01-13T17:03:33.682Z,-0.21
2023-01-13T17:04:36.849Z,-0.21
2023-01-13T17:05:40.974Z,-0.20
2023-01-13T17:08:33.814Z,-0.09
2023-01-13T17:09:36.857Z,-0.21
2023-01-13T17:10:40.053Z,-0.22
2023-01-13T17:11:43.237Z,-0.24
2023-01-13T17:12:46.443Z,-0.25
2023-01-13T17:13:49.630Z,-0.25
2023-01-13T17:14:52.820Z,-0.25
2023-01-13T17:15:55.960Z,-0.26
2023-01-13T17:16:59.006Z,-0.26
2023-01-13T17:18:02.799Z,-0.24
2023-01-13T17:19:05.877Z,-0.23
2023-01-13T17:20:14.841Z,-0.22
2023-01-13T17:21:18.238Z,-0.21
2023-01-13T17:22:22.063Z,-0.21
2023-01-13T17:23:25.170Z,-0.22
2023-01-13T17:24:30.144Z,-0.23
2023-01-13T17:25:33.288Z,-0.24
2023-01-13T17:26:41.123Z,-0.24
2023-01-13T17:27:44.347Z,-0.23
2023-01-13T17:28:47.541Z,-0.23
2023-01-13T17:29:50.703Z,-0.26
2023-01-13T17:30:54.195Z,-0.26
2023-01-13T17:31:57.395Z,-0.25
2023-01-13T17:33:00.483Z,-0.28
2023-01-13T17:34:04.444Z,-0.27
2023-01-13T17:35:08.415Z,-0.27
2023-01-13T17:36:11.901Z,-0.28
2023-01-13T17:37:15.540Z,-0.28
2023-01-13T17:38:18.719Z,-0.29
2023-01-13T17:39:24.626Z,-0.29
2023-01-13T17:40:27.856Z,-0.29
2023-01-13T17:41:31.169Z,-0.29
2023-01-13T17:42:34.433Z,-0.28
2023-01-13T17:43:37.589Z,-0.29
2023-01-13T17:44:40.871Z,-0.28
2023-01-13T17:45:44.079Z,-0.28
2023-01-13T17:46:48.338Z,-0.27
2023-01-13T17:48:00.003Z,-0.26
2023-01-13T17:49:03.155Z,-0.24
2023-01-13T17:50:06.745Z,-0.23
2023-01-13T17:51:12.586Z,-0.23
2023-01-13T17:52:15.658Z,-0.24
2023-01-13T17:53:19.471Z,-0.23
2023-01-13T17:54:22.935Z,-0.23
2023-01-13T17:55:25.960Z,-0.22
2023-01-13T17:56:29.138Z,-0.22
2023-01-13T17:57:32.186Z,-0.21
2023-01-13T17:58:36.030Z,-0.22
2023-01-13T17:59:40.910Z,-0.21
2023-01-13T18:00:44.407Z,-0.22